createdAt,value
2022-08-01T00:00:31.319Z,99407.00
2022-08-01T00:02:04.155Z,99402.00
2022-08-01T00:03:38.021Z,99406.00
2022-08-01T00:05:12.968Z,99410.00
2022-08-01T00:06:46.747Z,99406.00
2022-08-01T00:08:20.121Z,99407.00
2022-08-01T00:09:53.760Z,99403.00
2022-08-01T00:11:27.309Z,99409.00
2022-08-01T00:13:02.323Z,99405.00
2022-08-01T00:14:35.643Z,99406.00
2022-08-01T00:16:09.390Z,99399.00
2022-08-01T00:17:43.390Z,99396.00
2022-08-01T00:19:17.713Z,99394.00
2022-08-01T00:20:51.356Z,99399.00
2022-08-01T00:22:24.812Z,99405.00
2022-08-01T00:23:58.569Z,99408.00
2022-08-01T00:25:34.284Z,99409.00
2022-08-01T00:27:08.486Z,99395.00
2022-08-01T00:28:42.496Z,99396.00
2022-08-01T00:30:16.003Z,99392.00
2022-08-01T00:31:49.923Z,99389.00
2022-08-01T00:33:23.171Z,99390.00
2022-08-01T00:34:57.731Z,99389.00
2022-08-01T00:36:31.181Z,99384.00
2022-08-01T00:38:04.596Z,99396.00
2022-08-01T00:39:38.253Z,99388.00
2022-08-01T00:41:12.053Z,99391.00
2022-08-01T00:42:45.717Z,99392.00
2022-08-01T00:44:20.387Z,99391.00
2022-08-01T00:45:54.288Z,99391.00
2022-08-01T00:47:27.647Z,99395.00
2022-08-01T00:49:02.226Z,99393.00
2022-08-01T00:50:36.840Z,99395.00
2022-08-01T00:52:11.674Z,99387.00
2022-08-01T00:53:52.000Z,99380.00
2022-08-01T00:55:27.933Z,99379.00
2022-08-01T00:57:01.923Z,99378.00
2022-08-01T00:58:36.038Z,99378.00
2022-08-01T01:00:15.474Z,99383.00
2022-08-01T01:01:57.154Z,99381.00
2022-08-01T01:03:57.402Z,99382.00
2022-08-01T01:05:37.094Z,99391.00
2022-08-01T01:07:23.813Z,99383.00
2022-08-01T01:09:20.797Z,99387.00
2022-08-01T01:11:03.439Z,99388.00
2022-08-01T01:12:50.250Z,99382.00
2022-08-01T01:14:46.721Z,99381.00
2022-08-01T01:16:26.317Z,99386.00
2022-08-01T01:18:10.051Z,99381.00
2022-08-01T01:19:52.415Z,99379.00
2022-08-01T01:21:51.662Z,99390.00
2022-08-01T01:23:51.402Z,99384.00
2022-08-01T01:26:01.399Z,99386.00
2022-08-01T01:27:51.715Z,99384.00
2022-08-01T01:30:00.085Z,99386.00
2022-08-01T01:31:28.959Z,99389.00
2022-08-01T01:33:10.842Z,99386.00
2022-08-01T01:34:50.011Z,99381.00
2022-08-01T01:36:28.031Z,99386.00
2022-08-01T01:38:09.772Z,99386.00
2022-08-01T01:39:45.415Z,99386.00
2022-08-01T01:41:30.663Z,99386.00
2022-08-01T01:43:03.117Z,99385.00
2022-08-01T01:44:40.318Z,99394.00
2022-08-01T01:46:19.494Z,99391.00
2022-08-01T01:47:54.515Z,99396.00
2022-08-01T01:49:30.751Z,99396.00
2022-08-01T01:51:06.114Z,99393.00
2022-08-01T01:52:43.059Z,99403.00
2022-08-01T01:54:17.032Z,99392.00
2022-08-01T01:55:57.748Z,99392.00
2022-08-01T01:57:34.334Z,99399.00
2022-08-01T01:59:07.767Z,99410.00
2022-08-01T02:00:47.230Z,99396.00
2022-08-01T02:02:27.976Z,99402.00
2022-08-01T02:04:06.473Z,99400.00
2022-08-01T02:05:44.169Z,99396.00
2022-08-01T02:07:23.717Z,99391.00
2022-08-01T02:08:58.247Z,99390.00
2022-08-01T02:10:34.565Z,99390.00
2022-08-01T02:12:11.208Z,99390.00
2022-08-01T02:13:49.979Z,99378.00
2022-08-01T02:15:26.088Z,99388.00
2022-08-01T02:17:04.783Z,99380.00
2022-08-01T02:18:37.234Z,99388.00
2022-08-01T02:20:12.652Z,99388.00
2022-08-01T02:21:53.591Z,99392.00
2022-08-01T02:23:35.811Z,99390.00
2022-08-01T02:25:21.077Z,99381.00
2022-08-01T02:27:02.677Z,99385.00
2022-08-01T02:28:43.574Z,99383.00
2022-08-01T02:30:18.321Z,99386.00
2022-08-01T02:31:56.451Z,99385.00
2022-08-01T02:33:38.775Z,99391.00
2022-08-01T02:35:20.088Z,99388.00
2022-08-01T02:36:56.576Z,99385.00
2022-08-01T02:38:35.375Z,99380.00
2022-08-01T02:40:14.314Z,99381.00
2022-08-01T02:41:51.975Z,99376.00
2022-08-01T02:43:30.594Z,99394.00
2022-08-01T02:45:11.623Z,99388.00
2022-08-01T02:46:54.621Z,99390.00
2022-08-01T02:48:32.447Z,99382.00
2022-08-01T02:50:12.279Z,99383.00
2022-08-01T02:51:48.677Z,99385.00
2022-08-01T02:53:44.029Z,99387.00
2022-08-01T02:55:21.546Z,99387.00
2022-08-01T02:56:58.578Z,99392.00
2022-08-01T02:58:33.891Z,99393.00
2022-08-01T03:00:28.143Z,99390.00
2022-08-01T03:02:06.054Z,99399.00
2022-08-01T03:03:43.919Z,99395.00
2022-08-01T03:05:19.584Z,99391.00
2022-08-01T03:06:56.376Z,99394.00
2022-08-01T03:08:32.383Z,99388.00
2022-08-01T03:10:07.446Z,99387.00
2022-08-01T03:11:43.780Z,99394.00
2022-08-01T03:13:19.839Z,99381.00
2022-08-01T03:14:57.394Z,99385.00
2022-08-01T03:16:33.276Z,99375.00
2022-08-01T03:18:11.074Z,99373.00
2022-08-01T03:19:48.262Z,99374.00
2022-08-01T03:21:25.200Z,99373.00
2022-08-01T03:23:02.052Z,99386.00
2022-08-01T03:24:36.299Z,99384.00
2022-08-01T03:26:11.983Z,99389.00
2022-08-01T03:27:49.989Z,99386.00
2022-08-01T03:29:30.739Z,99393.00
2022-08-01T03:31:04.463Z,99393.00
2022-08-01T03:32:37.928Z,99386.00
2022-08-01T03:34:12.251Z,99388.00
2022-08-01T03:35:51.554Z,99391.00
2022-08-01T03:37:28.770Z,99385.00
2022-08-01T03:39:07.070Z,99387.00
2022-08-01T03:40:45.694Z,99385.00
2022-08-01T03:42:26.970Z,99392.00
2022-08-01T03:44:08.619Z,99386.00
2022-08-01T03:45:47.961Z,99391.00
2022-08-01T03:47:31.639Z,99397.00
2022-08-01T03:49:16.204Z,99400.00
2022-08-01T03:50:54.149Z,99402.00
2022-08-01T03:52:30.927Z,99402.00
2022-08-01T03:54:07.115Z,99395.00
2022-08-01T03:55:44.283Z,99400.00
2022-08-01T03:57:34.871Z,99398.00
2022-08-01T03:59:11.354Z,99391.00
2022-08-01T04:00:45.948Z,99396.00
2022-08-01T04:02:22.794Z,99397.00
2022-08-01T04:03:57.527Z,99400.00
2022-08-01T04:05:32.297Z,99401.00
2022-08-01T04:07:08.043Z,99401.00
2022-08-01T04:08:42.533Z,99395.00
2022-08-01T04:10:16.471Z,99398.00
2022-08-01T04:11:50.100Z,99405.00
2022-08-01T04:13:23.610Z,99403.00
2022-08-01T04:14:56.903Z,99393.00
2022-08-01T04:16:30.263Z,99395.00
2022-08-01T04:18:03.558Z,99407.00
2022-08-01T04:19:36.979Z,99401.00
2022-08-01T04:21:10.827Z,99404.00
2022-08-01T04:22:45.721Z,99403.00
2022-08-01T04:24:22.464Z,99399.00
2022-08-01T04:25:58.179Z,99404.00
2022-08-01T04:27:50.120Z,99405.00
2022-08-01T04:29:27.311Z,99406.00
2022-08-01T04:31:02.651Z,99407.00
2022-08-01T04:32:41.816Z,99414.00
2022-08-01T04:34:22.548Z,99417.00
2022-08-01T04:36:02.578Z,99413.00
2022-08-01T04:37:41.364Z,99416.00
2022-08-01T04:39:18.703Z,99413.00
2022-08-01T04:40:54.013Z,99408.00
2022-08-01T04:42:30.333Z,99414.00
2022-08-01T04:44:07.894Z,99415.00
2022-08-01T04:45:42.476Z,99413.00
2022-08-01T04:47:16.635Z,99411.00
2022-08-01T04:48:50.849Z,99413.00
2022-08-01T04:50:25.370Z,99420.00
2022-08-01T04:52:00.955Z,99420.00
2022-08-01T04:53:34.995Z,99426.00
2022-08-01T04:55:11.596Z,99427.00
2022-08-01T04:56:44.933Z,99421.00
2022-08-01T04:58:19.291Z,99418.00
2022-08-01T04:59:57.632Z,99419.00
2022-08-01T05:01:31.293Z,99422.00
2022-08-01T05:03:04.895Z,99429.00
2022-08-01T05:04:39.314Z,99421.00
2022-08-01T05:06:12.933Z,99429.00
2022-08-01T05:07:46.224Z,99425.00
2022-08-01T05:09:19.967Z,99432.00
2022-08-01T05:10:54.724Z,99429.00
2022-08-01T05:12:28.463Z,99432.00
2022-08-01T05:14:01.792Z,99430.00
2022-08-01T05:15:37.555Z,99431.00
2022-08-01T05:17:12.214Z,99436.00
2022-08-01T05:18:45.602Z,99440.00
2022-08-01T05:20:21.484Z,99440.00
2022-08-01T05:21:55.410Z,99437.00
2022-08-01T05:23:42.110Z,99429.00
2022-08-01T05:25:19.886Z,99444.00
2022-08-01T05:26:55.883Z,99435.00
2022-08-01T05:28:29.430Z,99440.00
2022-08-01T05:30:02.992Z,99442.00
2022-08-01T05:31:36.820Z,99437.00
2022-08-01T05:33:10.458Z,99440.00
2022-08-01T05:34:43.912Z,99448.00
2022-08-01T05:36:16.741Z,99444.00
2022-08-01T05:37:50.068Z,99447.00
2022-08-01T05:39:23.446Z,99453.00
2022-08-01T05:40:57.164Z,99448.00
2022-08-01T05:42:32.171Z,99446.00
2022-08-01T05:44:07.060Z,99455.00
2022-08-01T05:45:42.661Z,99454.00
2022-08-01T05:47:16.122Z,99458.00
2022-08-01T05:48:48.517Z,99461.00
2022-08-01T05:50:21.888Z,99464.00
2022-08-01T05:51:55.422Z,99456.00
2022-08-01T05:53:29.277Z,99461.00
2022-08-01T05:55:02.759Z,99462.00
2022-08-01T05:56:36.307Z,99465.00
2022-08-01T05:58:12.536Z,99462.00
2022-08-01T05:59:46.303Z,99466.00
2022-08-01T06:01:21.062Z,99461.00
2022-08-01T06:02:54.591Z,99467.00
2022-08-01T06:04:28.799Z,99462.00
2022-08-01T06:06:02.815Z,99461.00
2022-08-01T06:07:36.151Z,99461.00
2022-08-01T06:09:11.843Z,99468.00
2022-08-01T06:10:45.563Z,99459.00
2022-08-01T06:12:18.983Z,99465.00
2022-08-01T06:13:54.576Z,99469.00
2022-08-01T06:15:28.088Z,99474.00
2022-08-01T06:17:01.471Z,99467.00
2022-08-01T06:18:34.994Z,99471.00
2022-08-01T06:20:10.005Z,99470.00
2022-08-01T06:21:43.336Z,99474.00
2022-08-01T06:23:32.776Z,99473.00
2022-08-01T06:25:09.386Z,99472.00
2022-08-01T06:26:43.578Z,99473.00
2022-08-01T06:28:16.958Z,99478.00
2022-08-01T06:29:54.440Z,99472.00
2022-08-01T06:31:33.137Z,99467.00
2022-08-01T06:33:07.459Z,99473.00
2022-08-01T06:34:41.116Z,99467.00
2022-08-01T06:36:14.408Z,99458.00
2022-08-01T06:37:48.095Z,99467.00
2022-08-01T06:39:21.866Z,99455.00
2022-08-01T06:40:55.152Z,99461.00
2022-08-01T06:42:28.507Z,99458.00
2022-08-01T06:44:03.257Z,99465.00
2022-08-01T06:45:38.319Z,99463.00
2022-08-01T06:47:11.835Z,99462.00
2022-08-01T06:48:45.342Z,99464.00
2022-08-01T06:50:19.616Z,99456.00
2022-08-01T06:51:53.663Z,99462.00
2022-08-01T06:53:26.955Z,99469.00
2022-08-01T06:55:00.487Z,99466.00
2022-08-01T06:56:36.092Z,99465.00
2022-08-01T06:58:09.546Z,99468.00
2022-08-01T06:59:54.548Z,99465.00
2022-08-01T07:01:29.985Z,99472.00
2022-08-01T07:03:08.283Z,99469.00
2022-08-01T07:04:42.303Z,99467.00
2022-08-01T07:06:16.789Z,99469.00
2022-08-01T07:07:51.939Z,99461.00
2022-08-01T07:09:25.882Z,99465.00
2022-08-01T07:11:00.507Z,99461.00
2022-08-01T07:12:34.832Z,99462.00
2022-08-01T07:14:08.273Z,99469.00
2022-08-01T07:15:42.162Z,99467.00
2022-08-01T07:17:16.855Z,99465.00
2022-08-01T07:18:50.464Z,99464.00
2022-08-01T07:20:23.866Z,99461.00
2022-08-01T07:21:57.277Z,99468.00
2022-08-01T07:23:34.057Z,99463.00
2022-08-01T07:25:11.177Z,99459.00
2022-08-01T07:26:53.452Z,99464.00
2022-08-01T07:28:27.826Z,99457.00
2022-08-01T07:30:01.531Z,99460.00
2022-08-01T07:31:34.844Z,99453.00
2022-08-01T07:33:10.227Z,99463.00
2022-08-01T07:34:44.067Z,99457.00
2022-08-01T07:36:17.724Z,99461.00
2022-08-01T07:37:51.123Z,99468.00
2022-08-01T07:39:24.493Z,99471.00
2022-08-01T07:40:58.089Z,99474.00
2022-08-01T07:42:31.418Z,99470.00
2022-08-01T07:44:05.729Z,99478.00
2022-08-01T07:45:39.270Z,99471.00
2022-08-01T07:47:26.496Z,99474.00
2022-08-01T07:49:01.437Z,99479.00
2022-08-01T07:50:36.154Z,99488.00
2022-08-01T07:52:10.698Z,99475.00
2022-08-01T07:53:44.167Z,99479.00
2022-08-01T07:55:17.676Z,99475.00
2022-08-01T07:56:51.038Z,99484.00
2022-08-01T07:58:24.374Z,99479.00
2022-08-01T07:59:58.277Z,99483.00
2022-08-01T08:01:31.934Z,99479.00
2022-08-01T08:03:05.878Z,99481.00
2022-08-01T08:04:40.523Z,99480.00
2022-08-01T08:06:14.209Z,99487.00
2022-08-01T08:07:47.597Z,99489.00
2022-08-01T08:09:21.600Z,99485.00
2022-08-01T08:10:55.179Z,99489.00
2022-08-01T08:12:32.695Z,99497.00
2022-08-01T08:14:06.001Z,99503.00
2022-08-01T08:15:39.741Z,99486.00
2022-08-01T08:17:14.064Z,99486.00
2022-08-01T08:18:47.428Z,99492.00
2022-08-01T08:20:25.650Z,99488.00
2022-08-01T08:21:59.054Z,99488.00
2022-08-01T08:23:52.497Z,99488.00
2022-08-01T08:25:26.802Z,99483.00
2022-08-01T08:27:02.814Z,99486.00
2022-08-01T08:28:36.200Z,99486.00
2022-08-01T08:30:12.011Z,99481.00
2022-08-01T08:31:50.963Z,99485.00
2022-08-01T08:33:26.120Z,99491.00
2022-08-01T08:34:59.569Z,99487.00
2022-08-01T08:36:37.234Z,99484.00
2022-08-01T08:38:11.922Z,99483.00
2022-08-01T08:39:45.759Z,99482.00
2022-08-01T08:41:21.473Z,99492.00
2022-08-01T08:42:55.657Z,99486.00
2022-08-01T08:44:29.023Z,99494.00
2022-08-01T08:46:03.370Z,99491.00
2022-08-01T08:47:37.827Z,99495.00
2022-08-01T08:49:13.425Z,99501.00
2022-08-01T08:50:49.987Z,99499.00
2022-08-01T08:52:25.463Z,99493.00
2022-08-01T08:54:00.202Z,99497.00
2022-08-01T08:55:33.632Z,99497.00
2022-08-01T08:57:27.072Z,99507.00
2022-08-01T08:59:00.565Z,99502.00
2022-08-01T09:00:35.219Z,99504.00
2022-08-01T09:02:11.452Z,99507.00
2022-08-01T09:03:45.941Z,99507.00
2022-08-01T09:05:26.466Z,99506.00
2022-08-01T09:07:12.714Z,99515.00
2022-08-01T09:08:47.684Z,99515.00
2022-08-01T09:10:22.052Z,99517.00
2022-08-01T09:11:58.151Z,99517.00
2022-08-01T09:13:32.054Z,99515.00
2022-08-01T09:15:06.470Z,99520.00
2022-08-01T09:16:48.539Z,99520.00
2022-08-01T09:18:35.632Z,99530.00
2022-08-01T09:20:23.951Z,99527.00
2022-08-01T09:22:02.536Z,99523.00
2022-08-01T09:23:40.535Z,99533.00
2022-08-01T09:25:36.772Z,99530.00
2022-08-01T09:27:24.589Z,99529.00
2022-08-01T09:28:58.703Z,99531.00
2022-08-01T09:30:40.951Z,99534.00
2022-08-01T09:32:16.353Z,99546.00
2022-08-01T09:33:56.323Z,99539.00
2022-08-01T09:35:43.196Z,99530.00
2022-08-01T09:37:18.881Z,99530.00
2022-08-01T09:38:57.732Z,99527.00
2022-08-01T09:40:50.808Z,99521.00
2022-08-01T09:42:28.899Z,99532.00
2022-08-01T09:44:02.891Z,99538.00
2022-08-01T09:45:41.062Z,99527.00
2022-08-01T09:47:17.281Z,99539.00
2022-08-01T09:49:01.979Z,99529.00
2022-08-01T09:50:43.268Z,99538.00
2022-08-01T09:52:19.613Z,99535.00
2022-08-01T09:53:54.676Z,99546.00
2022-08-01T09:55:28.605Z,99547.00
2022-08-01T09:57:17.807Z,99539.00
2022-08-01T09:59:01.144Z,99538.00
2022-08-01T10:00:45.178Z,99543.00
2022-08-01T10:02:32.989Z,99542.00
2022-08-01T10:04:12.248Z,99544.00
2022-08-01T10:05:49.936Z,99536.00
2022-08-01T10:07:27.801Z,99540.00
2022-08-01T10:09:27.932Z,99531.00
2022-08-01T10:11:16.555Z,99538.00
2022-08-01T10:12:54.590Z,99543.00
2022-08-01T10:14:29.952Z,99545.00
2022-08-01T10:16:04.458Z,99538.00
2022-08-01T10:17:51.288Z,99545.00
2022-08-01T10:19:28.968Z,99538.00
2022-08-01T10:21:08.611Z,99543.00
2022-08-01T10:22:45.853Z,99553.00
2022-08-01T10:24:21.507Z,99548.00
2022-08-01T10:25:57.752Z,99553.00
2022-08-01T10:27:38.436Z,99546.00
2022-08-01T10:29:44.928Z,99546.00
2022-08-01T10:31:14.499Z,99549.00
2022-08-01T10:32:50.571Z,99539.00
2022-08-01T10:34:25.855Z,99547.00
2022-08-01T10:36:03.201Z,99545.00
2022-08-01T10:37:52.164Z,99544.00
2022-08-01T10:39:29.347Z,99549.00
2022-08-01T10:41:08.684Z,99546.00
2022-08-01T10:42:44.706Z,99546.00
2022-08-01T10:44:19.995Z,99551.00
2022-08-01T10:45:55.989Z,99542.00
2022-08-01T10:47:51.074Z,99538.00
2022-08-01T10:49:30.989Z,99535.00
2022-08-01T10:51:18.171Z,99534.00
2022-08-01T10:53:16.394Z,99534.00
2022-08-01T10:55:05.929Z,99542.00
2022-08-01T10:56:46.989Z,99538.00
2022-08-01T10:58:25.278Z,99539.00
2022-08-01T11:00:04.655Z,99531.00
2022-08-01T11:01:38.392Z,99528.00
2022-08-01T11:03:12.612Z,99523.00
2022-08-01T11:04:57.183Z,99522.00
2022-08-01T11:06:44.995Z,99531.00
2022-08-01T11:08:26.263Z,99529.00
2022-08-01T11:10:14.957Z,99529.00
2022-08-01T11:12:07.404Z,99536.00
2022-08-01T11:14:07.756Z,99523.00
2022-08-01T11:15:50.171Z,99529.00
2022-08-01T11:17:37.613Z,99529.00
2022-08-01T11:19:11.756Z,99528.00
2022-08-01T11:21:56.336Z,99528.00
2022-08-01T11:23:35.983Z,99534.00
2022-08-01T11:25:12.111Z,99524.00
2022-08-01T11:27:18.424Z,99528.00
2022-08-01T11:29:23.460Z,99528.00
2022-08-01T11:31:37.093Z,99528.00
2022-08-01T11:33:12.293Z,99532.00
2022-08-01T11:34:56.448Z,99537.00
2022-08-01T11:36:55.931Z,99542.00
2022-08-01T11:38:30.861Z,99535.00
2022-08-01T11:40:19.790Z,99539.00
2022-08-01T11:41:54.836Z,99529.00
2022-08-01T11:43:28.998Z,99539.00
2022-08-01T11:45:07.387Z,99531.00
2022-08-01T11:46:57.976Z,99538.00
2022-08-01T11:48:31.896Z,99535.00
2022-08-01T11:50:07.502Z,99526.00
2022-08-01T11:51:40.956Z,99532.00
2022-08-01T11:53:15.472Z,99525.00
2022-08-01T11:54:51.748Z,99514.00
2022-08-01T11:56:28.822Z,99522.00
2022-08-01T11:58:05.260Z,99523.00
2022-08-01T12:00:02.272Z,99516.00
2022-08-01T12:01:36.087Z,99512.00
2022-08-01T12:03:16.426Z,99510.00
2022-08-01T12:05:01.565Z,99521.00
2022-08-01T12:06:35.366Z,99522.00
2022-08-01T12:08:08.868Z,99515.00
2022-08-01T12:09:41.380Z,99526.00
2022-08-01T12:11:14.760Z,99524.00
2022-08-01T12:12:51.507Z,99531.00
2022-08-01T12:14:23.897Z,99524.00
2022-08-01T12:15:57.228Z,99520.00
2022-08-01T12:17:34.583Z,99516.00
2022-08-01T12:19:10.065Z,99527.00
2022-08-01T12:20:57.138Z,99530.00
2022-08-01T12:22:31.047Z,99538.00
2022-08-01T12:24:05.173Z,99537.00
2022-08-01T12:25:40.714Z,99537.00
2022-08-01T12:27:27.813Z,99541.00
2022-08-01T12:29:01.255Z,99532.00
2022-08-01T12:30:37.463Z,99530.00
2022-08-01T12:32:27.683Z,99525.00
2022-08-01T12:34:36.336Z,99534.00
2022-08-01T12:36:13.450Z,99534.00
2022-08-01T12:37:50.045Z,99537.00
2022-08-01T12:39:23.846Z,99535.00
2022-08-01T12:40:57.777Z,99540.00
2022-08-01T12:42:31.850Z,99536.00
2022-08-01T12:44:14.445Z,99534.00
2022-08-01T12:45:56.685Z,99553.00
2022-08-01T12:47:30.876Z,99551.00
2022-08-01T12:49:04.575Z,99541.00
2022-08-01T12:50:42.522Z,99538.00
2022-08-01T12:52:18.167Z,99540.00
2022-08-01T12:53:52.211Z,99535.00
2022-08-01T12:55:33.950Z,99536.00
2022-08-01T12:57:25.187Z,99527.00
2022-08-01T12:58:59.899Z,99540.00
2022-08-01T13:00:34.092Z,99543.00
2022-08-01T13:02:11.996Z,99524.00
2022-08-01T13:04:01.815Z,99532.00
2022-08-01T13:05:48.087Z,99537.00
2022-08-01T13:07:21.673Z,99545.00
2022-08-01T13:08:55.284Z,99538.00
2022-08-01T13:10:31.668Z,99551.00
2022-08-01T13:12:11.142Z,99545.00
2022-08-01T13:13:48.043Z,99543.00
2022-08-01T13:15:28.572Z,99545.00
2022-08-01T13:17:02.135Z,99544.00
2022-08-01T13:18:37.656Z,99542.00
2022-08-01T13:20:10.841Z,99544.00
2022-08-01T13:21:58.447Z,99556.00
2022-08-01T13:24:03.269Z,99552.00
2022-08-01T13:25:27.539Z,99545.00
2022-08-01T13:27:04.666Z,99546.00
2022-08-01T13:28:39.329Z,99556.00
2022-08-01T13:30:14.799Z,99550.00
2022-08-01T13:31:48.945Z,99545.00
2022-08-01T13:33:23.123Z,99543.00
2022-08-01T13:35:04.818Z,99551.00
2022-08-01T13:36:39.394Z,99548.00
2022-08-01T13:38:14.082Z,99553.00
2022-08-01T13:39:48.267Z,99551.00
2022-08-01T13:41:21.980Z,99540.00
2022-08-01T13:42:57.429Z,99538.00
2022-08-01T13:44:30.778Z,99542.00
2022-08-01T13:46:05.075Z,99545.00
2022-08-01T13:47:39.743Z,99541.00
2022-08-01T13:49:37.360Z,99547.00
2022-08-01T13:51:21.921Z,99551.00
2022-08-01T13:52:56.633Z,99551.00
2022-08-01T13:54:32.571Z,99557.00
2022-08-01T13:56:06.669Z,99555.00
2022-08-01T13:57:40.307Z,99554.00
2022-08-01T13:59:13.805Z,99554.00
2022-08-01T14:00:47.468Z,99563.00
2022-08-01T14:02:20.915Z,99562.00
2022-08-01T14:03:54.278Z,99557.00
2022-08-01T14:05:27.781Z,99566.00
2022-08-01T14:07:05.550Z,99555.00
2022-08-01T14:08:40.831Z,99565.00
2022-08-01T14:10:20.992Z,99562.00
2022-08-01T14:11:54.880Z,99554.00
2022-08-01T14:13:33.567Z,99561.00
2022-08-01T14:15:11.151Z,99561.00
2022-08-01T14:16:45.869Z,99543.00
2022-08-01T14:18:19.385Z,99564.00
2022-08-01T14:19:52.979Z,99564.00
2022-08-01T14:21:26.695Z,99563.00
2022-08-01T14:23:00.133Z,99564.00
2022-08-01T14:24:33.881Z,99553.00
2022-08-01T14:26:12.297Z,99554.00
2022-08-01T14:27:46.510Z,99562.00
2022-08-01T14:29:19.747Z,99566.00
2022-08-01T14:30:53.049Z,99568.00
2022-08-01T14:32:28.795Z,99576.00
2022-08-01T14:34:03.125Z,99577.00
2022-08-01T14:35:57.652Z,99578.00
2022-08-01T14:37:34.730Z,99569.00
2022-08-01T14:39:15.022Z,99573.00
2022-08-01T14:40:52.108Z,99570.00
2022-08-01T14:42:27.247Z,99572.00
2022-08-01T14:44:00.763Z,99574.00
2022-08-01T14:45:34.854Z,99567.00
2022-08-01T14:47:21.389Z,99577.00
2022-08-01T14:48:56.391Z,99573.00
2022-08-01T14:50:29.845Z,99575.00
2022-08-01T14:52:03.756Z,99569.00
2022-08-01T14:53:38.423Z,99572.00
2022-08-01T14:55:14.120Z,99572.00
2022-08-01T14:56:48.521Z,99567.00
2022-08-01T14:58:23.650Z,99563.00
2022-08-01T14:59:57.484Z,99568.00
2022-08-01T15:01:30.990Z,99566.00
2022-08-01T15:03:05.011Z,99562.00
2022-08-01T15:04:38.510Z,99572.00
2022-08-01T15:06:12.618Z,99576.00
2022-08-01T15:07:52.449Z,99567.00
2022-08-01T15:09:27.286Z,99565.00
2022-08-01T15:11:01.883Z,99570.00
2022-08-01T15:12:49.587Z,99567.00
2022-08-01T15:14:42.767Z,99572.00
2022-08-01T15:16:16.288Z,99566.00
2022-08-01T15:17:49.882Z,99574.00
2022-08-01T15:19:23.373Z,99570.00
2022-08-01T15:20:58.579Z,99569.00
2022-08-01T15:22:32.979Z,99563.00
2022-08-01T15:24:07.459Z,99562.00
2022-08-01T15:25:42.167Z,99578.00
2022-08-01T15:27:16.646Z,99580.00
2022-08-01T15:28:50.275Z,99579.00
2022-08-01T15:30:27.320Z,99562.00
2022-08-01T15:32:01.013Z,99573.00
2022-08-01T15:33:34.283Z,99571.00
2022-08-01T15:35:10.997Z,99576.00
2022-08-01T15:36:44.803Z,99575.00
2022-08-01T15:38:22.790Z,99572.00
2022-08-01T15:39:56.699Z,99575.00
2022-08-01T15:41:30.233Z,99573.00
2022-08-01T15:43:04.714Z,99571.00
2022-08-01T15:44:38.519Z,99579.00
2022-08-01T15:46:14.918Z,99579.00
2022-08-01T15:47:50.093Z,99568.00
2022-08-01T15:49:25.187Z,99557.00
2022-08-01T15:50:58.694Z,99562.00
2022-08-01T15:52:32.112Z,99568.00
2022-08-01T15:54:11.514Z,99576.00
2022-08-01T15:55:52.215Z,99562.00
2022-08-01T15:57:26.258Z,99571.00
2022-08-01T15:58:58.835Z,99570.00
2022-08-01T16:00:38.848Z,99570.00
2022-08-01T16:02:14.818Z,99566.00
2022-08-01T16:03:48.489Z,99575.00
2022-08-01T16:05:22.101Z,99572.00
2022-08-01T16:06:55.643Z,99579.00
2022-08-01T16:08:29.180Z,99578.00
2022-08-01T16:10:02.925Z,99581.00
2022-08-01T16:11:42.344Z,99582.00
2022-08-01T16:13:17.935Z,99575.00
2022-08-01T16:14:51.312Z,99576.00
2022-08-01T16:16:24.686Z,99577.00
2022-08-01T16:18:02.026Z,99572.00
2022-08-01T16:19:36.823Z,99574.00
2022-08-01T16:21:11.634Z,99572.00
2022-08-01T16:22:44.922Z,99580.00
2022-08-01T16:24:18.589Z,99581.00
2022-08-01T16:25:52.164Z,99580.00
2022-08-01T16:27:27.265Z,99575.00
2022-08-01T16:29:01.467Z,99580.00
2022-08-01T16:30:35.629Z,99585.00
2022-08-01T16:32:30.088Z,99573.00
2022-08-01T16:34:05.228Z,99579.00
2022-08-01T16:35:41.500Z,99585.00
2022-08-01T16:37:20.315Z,99581.00
2022-08-01T16:38:53.755Z,99584.00
2022-08-01T16:40:27.533Z,99580.00
2022-08-01T16:42:04.066Z,99579.00
2022-08-01T16:43:37.911Z,99583.00
2022-08-01T16:45:21.107Z,99584.00
2022-08-01T16:46:54.443Z,99588.00
2022-08-01T16:48:28.630Z,99583.00
2022-08-01T16:50:03.475Z,99582.00
2022-08-01T16:51:42.098Z,99589.00
2022-08-01T16:53:24.041Z,99578.00
2022-08-01T16:54:58.201Z,99596.00
2022-08-01T16:56:31.542Z,99575.00
2022-08-01T16:58:05.259Z,99584.00
2022-08-01T16:59:41.583Z,99591.00
2022-08-01T17:01:59.350Z,99590.00
2022-08-01T17:03:17.327Z,99576.00
2022-08-01T17:05:07.087Z,99590.00
2022-08-01T17:06:46.255Z,99580.00
2022-08-01T17:08:19.804Z,99586.00
2022-08-01T17:09:53.252Z,99585.00
2022-08-01T17:11:26.737Z,99585.00
2022-08-01T17:13:00.205Z,99583.00
2022-08-01T17:14:33.959Z,99588.00
2022-08-01T17:16:09.877Z,99580.00
2022-08-01T17:17:43.158Z,99585.00
2022-08-01T17:19:16.717Z,99581.00
2022-08-01T17:20:52.067Z,99580.00
2022-08-01T17:22:25.372Z,99581.00
2022-08-01T17:23:58.835Z,99574.00
2022-08-01T17:25:32.580Z,99584.00
2022-08-01T17:27:12.731Z,99575.00
2022-08-01T17:28:47.405Z,99576.00
2022-08-01T17:30:21.924Z,99580.00
2022-08-01T17:31:58.644Z,99585.00
2022-08-01T17:33:44.490Z,99579.00
2022-08-01T17:35:19.261Z,99580.00
2022-08-01T17:36:53.450Z,99585.00
2022-08-01T17:38:32.872Z,99586.00
2022-08-01T17:40:37.567Z,99579.00
2022-08-01T17:42:02.486Z,99586.00
2022-08-01T17:43:37.878Z,99587.00
2022-08-01T17:45:27.617Z,99588.00
2022-08-01T17:47:01.853Z,99584.00
2022-08-01T17:48:35.838Z,99591.00
2022-08-01T17:50:13.946Z,99588.00
2022-08-01T17:51:48.247Z,99582.00
2022-08-01T17:53:23.971Z,99587.00
2022-08-01T17:54:57.844Z,99592.00
2022-08-01T17:56:34.777Z,99584.00
2022-08-01T17:58:17.363Z,99589.00
2022-08-01T18:00:13.419Z,99580.00
2022-08-01T18:01:49.758Z,99582.00
2022-08-01T18:03:30.302Z,99580.00
2022-08-01T18:05:15.516Z,99582.00
2022-08-01T18:06:58.487Z,99583.00
2022-08-01T18:08:42.975Z,99580.00
2022-08-01T18:10:16.876Z,99577.00
2022-08-01T18:11:50.301Z,99580.00
2022-08-01T18:13:23.851Z,99596.00
2022-08-01T18:15:03.481Z,99586.00
2022-08-01T18:16:38.113Z,99583.00
2022-08-01T18:18:14.084Z,99590.00
2022-08-01T18:19:54.416Z,99592.00
2022-08-01T18:21:30.355Z,99596.00
2022-08-01T18:23:08.674Z,99597.00
2022-08-01T18:24:44.222Z,99591.00
2022-08-01T18:26:18.209Z,99587.00
2022-08-01T18:28:22.373Z,99587.00
2022-08-01T18:29:48.454Z,99585.00
2022-08-01T18:31:24.556Z,99592.00
2022-08-01T18:32:58.975Z,99587.00
2022-08-01T18:34:33.251Z,99585.00
2022-08-01T18:36:09.763Z,99592.00
2022-08-01T18:37:54.554Z,99595.00
2022-08-01T18:39:29.479Z,99600.00
2022-08-01T18:41:10.348Z,99598.00
2022-08-01T18:42:44.225Z,99596.00
2022-08-01T18:44:18.071Z,99586.00
2022-08-01T18:45:51.968Z,99598.00
2022-08-01T18:47:25.453Z,99599.00
2022-08-01T18:48:59.136Z,99599.00
2022-08-01T18:50:32.846Z,99602.00
2022-08-01T18:52:06.500Z,99606.00
2022-08-01T18:53:41.719Z,99610.00
2022-08-01T18:55:15.556Z,99612.00
2022-08-01T18:56:50.602Z,99616.00
2022-08-01T18:58:24.239Z,99619.00
2022-08-01T18:59:58.792Z,99617.00
2022-08-01T19:01:32.691Z,99623.00
2022-08-01T19:03:06.360Z,99626.00
2022-08-01T19:04:39.943Z,99616.00
2022-08-01T19:06:14.208Z,99623.00